Terminal Aerodrome Forecast
Issued by NWS

Home | Current Version | Previous Version | Text Only | Print | Product List | Glossary On
Versions: 1 2 3 4 5 6 7 8 9 10 11 12
167
FTUS42 KGSP 202339
TAFGMU
TAF
KGMU 202339Z 2100/2124 06004KT P6SM FEW070
     FM210900 01003KT P6SM FEW250
     FM211400 07005KT P6SM FEW250
     FM211700 11004KT P6SM FEW050
     FM212000 13007KT P6SM SCT050=

USA.gov is the U.S. government's official web portal to all federal, state and local government web resources and services.